createdAt,value
2023-01-03T00:01:41.603Z,5.60
2023-01-03T00:04:10.040Z,3.00
2023-01-03T00:06:47.530Z,2.20
2023-01-03T00:09:17.358Z,2.40
2023-01-03T00:12:06.145Z,3.80
2023-01-03T00:14:37.446Z,1.00
2023-01-03T00:17:06.842Z,3.40
2023-01-03T00:19:38.390Z,2.00
2023-01-03T00:22:06.200Z,0.80
2023-01-03T00:24:33.882Z,2.60
2023-01-03T00:27:01.609Z,1.80
2023-01-03T00:29:29.259Z,1.00
2023-01-03T00:31:56.746Z,2.20
2023-01-03T00:34:24.354Z,3.80
2023-01-03T00:36:52.202Z,1.00
2023-01-03T00:39:19.811Z,1.20
2023-01-03T00:41:47.455Z,1.40
2023-01-03T00:44:15.158Z,2.80
2023-01-03T00:46:42.874Z,3.00
2023-01-03T00:49:11.386Z,2.00
2023-01-03T00:51:41.563Z,2.80
2023-01-03T00:54:11.273Z,1.80
2023-01-03T00:56:44.055Z,2.00
2023-01-03T00:59:13.077Z,1.80
2023-01-03T01:01:47.168Z,2.00
2023-01-03T01:04:28.383Z,1.60
2023-01-03T01:07:02.140Z,1.00
2023-01-03T01:09:35.794Z,2.40
2023-01-03T01:12:04.586Z,1.60
2023-01-03T01:14:33.874Z,1.00
2023-01-03T01:17:04.351Z,2.00
2023-01-03T01:19:34.718Z,1.40
2023-01-03T01:22:02.966Z,4.60
2023-01-03T01:24:30.904Z,3.40
2023-01-03T01:26:58.558Z,1.00
2023-01-03T01:29:26.325Z,2.80
2023-01-03T01:31:54.018Z,1.20
2023-01-03T01:34:21.564Z,2.60
2023-01-03T01:36:49.282Z,1.20
2023-01-03T01:39:18.214Z,0.00
2023-01-03T01:42:06.183Z,1.20
2023-01-03T01:44:59.842Z,1.00
2023-01-03T01:47:29.941Z,3.00
2023-01-03T01:50:07.105Z,0.00
2023-01-03T01:52:38.508Z,1.00
2023-01-03T01:55:09.910Z,1.40
2023-01-03T01:57:39.036Z,0.00
2023-01-03T02:00:08.578Z,1.00
2023-01-03T02:02:47.074Z,0.00
2023-01-03T02:05:17.411Z,1.00
2023-01-03T02:07:47.904Z,0.00
2023-01-03T02:10:15.586Z,0.00
2023-01-03T02:13:07.645Z,0.00
2023-01-03T02:16:19.874Z,1.00
2023-01-03T02:19:30.811Z,0.60
2023-01-03T02:22:16.065Z,0.00
2023-01-03T02:24:57.590Z,0.20
2023-01-03T02:28:02.532Z,0.00
2023-01-03T02:30:55.769Z,0.00
2023-01-03T02:34:16.782Z,0.00
2023-01-03T02:37:11.581Z,0.00
2023-01-03T02:39:55.081Z,0.00
2023-01-03T02:43:06.153Z,0.60
2023-01-03T02:45:44.025Z,0.00
2023-01-03T02:48:24.580Z,0.00
2023-01-03T02:50:56.641Z,0.00
2023-01-03T02:53:35.272Z,0.00
2023-01-03T02:56:10.173Z,0.00
2023-01-03T02:58:40.109Z,0.00
2023-01-03T03:01:11.043Z,0.00
2023-01-03T03:03:40.559Z,0.00
2023-01-03T03:06:26.012Z,0.00
2023-01-03T03:08:53.616Z,0.00
2023-01-03T03:11:40.428Z,0.00
2023-01-03T03:14:22.623Z,0.00
2023-01-03T03:16:53.987Z,0.00
2023-01-03T03:19:42.631Z,0.00
2023-01-03T03:22:57.471Z,0.00
2023-01-03T03:25:36.311Z,0.00
2023-01-03T03:28:30.061Z,0.00
2023-01-03T03:31:03.274Z,0.00
2023-01-03T03:33:35.959Z,0.00
2023-01-03T03:36:12.919Z,0.00
2023-01-03T03:38:45.356Z,0.00
2023-01-03T03:42:02.031Z,0.00
2023-01-03T03:45:00.942Z,0.00
2023-01-03T03:47:39.716Z,0.00
2023-01-03T03:50:28.943Z,0.00
2023-01-03T03:53:00.470Z,0.00
2023-01-03T03:55:52.038Z,0.00
2023-01-03T03:58:24.572Z,0.00
2023-01-03T04:00:53.800Z,0.00
2023-01-03T04:03:23.170Z,0.00
2023-01-03T04:06:01.110Z,0.00
2023-01-03T04:08:28.728Z,0.00
2023-01-03T04:11:06.083Z,0.00
2023-01-03T04:13:35.862Z,0.00
2023-01-03T04:16:03.440Z,0.00
2023-01-03T04:18:31.324Z,0.00
2023-01-03T04:20:58.464Z,0.00
2023-01-03T04:23:25.829Z,0.00
2023-01-03T04:25:53.308Z,0.00
2023-01-03T04:28:20.943Z,0.00
2023-01-03T04:30:48.549Z,0.00
2023-01-03T04:33:16.344Z,0.00
2023-01-03T04:35:43.746Z,0.00
2023-01-03T04:38:11.107Z,0.00
2023-01-03T04:40:38.944Z,0.40
2023-01-03T04:43:24.692Z,0.00
2023-01-03T04:45:52.190Z,0.00
2023-01-03T04:48:19.707Z,0.00
2023-01-03T04:50:54.165Z,0.00
2023-01-03T04:53:22.597Z,0.00
2023-01-03T04:55:51.586Z,0.00
2023-01-03T04:58:20.138Z,0.00
2023-01-03T05:00:47.486Z,0.00
2023-01-03T05:03:17.541Z,0.00
2023-01-03T05:05:46.451Z,0.00
2023-01-03T05:08:13.913Z,0.00
2023-01-03T05:10:42.162Z,0.00
2023-01-03T05:13:10.086Z,0.00
2023-01-03T05:15:40.073Z,0.00
2023-01-03T05:18:07.551Z,0.00
2023-01-03T05:20:56.233Z,0.00
2023-01-03T05:23:42.754Z,0.00
2023-01-03T05:26:16.047Z,0.00
2023-01-03T05:28:48.623Z,0.00
2023-01-03T05:31:16.292Z,0.00
2023-01-03T05:33:43.893Z,0.00
2023-01-03T05:36:11.335Z,0.00
2023-01-03T05:38:39.344Z,0.00
2023-01-03T05:41:06.857Z,0.00
2023-01-03T05:43:34.622Z,0.00
2023-01-03T05:46:02.408Z,0.00
2023-01-03T05:48:30.076Z,0.00
2023-01-03T05:50:58.696Z,0.00
2023-01-03T05:53:26.165Z,0.00
2023-01-03T05:55:53.469Z,0.00
2023-01-03T05:58:20.838Z,0.00
2023-01-03T06:00:48.303Z,0.00
2023-01-03T06:03:15.766Z,0.00
2023-01-03T06:05:49.542Z,0.00
2023-01-03T06:08:18.364Z,0.00
2023-01-03T06:10:45.709Z,0.00
2023-01-03T06:13:13.050Z,0.00
2023-01-03T06:15:40.644Z,0.00
2023-01-03T06:18:08.159Z,0.00
2023-01-03T06:20:35.772Z,0.00
2023-01-03T06:23:03.054Z,0.00
2023-01-03T06:25:30.430Z,0.00
2023-01-03T06:27:57.823Z,0.00
2023-01-03T06:30:25.469Z,0.00
2023-01-03T06:32:52.815Z,0.00
2023-01-03T06:35:20.126Z,0.00
2023-01-03T06:37:47.543Z,0.00
2023-01-03T06:40:15.134Z,0.00
2023-01-03T06:42:45.166Z,0.00
2023-01-03T06:45:33.090Z,0.00
2023-01-03T06:48:29.430Z,0.00
2023-01-03T06:51:15.761Z,0.00
2023-01-03T06:53:43.853Z,0.00
2023-01-03T06:56:12.041Z,0.00
2023-01-03T06:58:41.336Z,0.00
2023-01-03T07:01:09.825Z,0.00
2023-01-03T07:03:37.472Z,0.00
2023-01-03T07:06:04.788Z,0.00
2023-01-03T07:08:32.135Z,0.00
2023-01-03T07:10:59.508Z,0.00
2023-01-03T07:13:45.184Z,0.00
2023-01-03T07:16:17.015Z,0.00
2023-01-03T07:18:49.332Z,0.00
2023-01-03T07:21:27.174Z,0.00
2023-01-03T07:23:56.551Z,0.00
2023-01-03T07:26:25.223Z,0.00
2023-01-03T07:28:53.662Z,0.00
2023-01-03T07:31:21.126Z,0.00
2023-01-03T07:33:48.468Z,0.00
2023-01-03T07:36:16.919Z,0.00
2023-01-03T07:38:45.851Z,0.00
2023-01-03T07:41:14.712Z,0.00
2023-01-03T07:43:48.717Z,0.00
2023-01-03T07:46:24.778Z,0.00
2023-01-03T07:48:57.325Z,0.00
2023-01-03T07:51:24.691Z,0.00
2023-01-03T07:53:53.520Z,0.00
2023-01-03T07:56:22.733Z,0.00
2023-01-03T07:58:52.169Z,0.00
2023-01-03T08:01:25.050Z,0.00
2023-01-03T08:03:52.683Z,0.00
2023-01-03T08:06:22.587Z,0.00
2023-01-03T08:09:11.269Z,0.00
2023-01-03T08:11:57.446Z,0.00
2023-01-03T08:14:26.837Z,0.00
2023-01-03T08:16:55.902Z,0.00
2023-01-03T08:19:24.253Z,0.00
2023-01-03T08:21:51.700Z,0.00
2023-01-03T08:24:20.234Z,0.00
2023-01-03T08:26:47.663Z,0.00
2023-01-03T08:29:15.439Z,0.00
2023-01-03T08:31:47.452Z,0.00
2023-01-03T08:34:19.803Z,0.00
2023-01-03T08:36:55.260Z,0.00
2023-01-03T08:39:29.582Z,0.00
2023-01-03T08:42:04.967Z,0.00
2023-01-03T08:44:32.688Z,0.00
2023-01-03T08:47:03.178Z,0.00
2023-01-03T08:49:31.408Z,0.00
2023-01-03T08:51:58.625Z,0.00
2023-01-03T08:54:25.903Z,0.00
2023-01-03T08:56:53.160Z,0.00
2023-01-03T08:59:20.660Z,0.00
2023-01-03T09:01:48.276Z,0.00
2023-01-03T09:04:15.838Z,0.00
2023-01-03T09:06:43.174Z,0.00
2023-01-03T09:09:10.583Z,0.00
2023-01-03T09:11:37.884Z,0.00
2023-01-03T09:14:05.158Z,0.00
2023-01-03T09:16:32.486Z,0.00
2023-01-03T09:19:00.209Z,0.00
2023-01-03T09:21:28.852Z,0.00
2023-01-03T09:23:56.518Z,0.00
2023-01-03T09:26:23.857Z,0.60
2023-01-03T09:28:51.159Z,0.00
2023-01-03T09:31:18.563Z,0.20
2023-01-03T09:33:45.887Z,0.00
2023-01-03T09:36:13.433Z,0.80
2023-01-03T09:38:40.841Z,0.00
2023-01-03T09:41:12.765Z,0.00
2023-01-03T09:43:43.883Z,0.00
2023-01-03T09:46:18.727Z,0.00
2023-01-03T09:48:46.816Z,0.00
2023-01-03T09:51:43.912Z,0.00
2023-01-03T09:54:37.265Z,0.00
2023-01-03T09:57:49.552Z,0.00
2023-01-03T10:01:20.884Z,0.00
2023-01-03T10:04:06.535Z,0.00
2023-01-03T10:06:59.159Z,0.00
2023-01-03T10:09:48.199Z,0.00
2023-01-03T10:12:39.622Z,0.00
2023-01-03T10:15:09.944Z,0.00
2023-01-03T10:17:42.350Z,0.00
2023-01-03T10:20:28.036Z,0.00
2023-01-03T10:22:58.609Z,0.00
2023-01-03T10:25:28.590Z,0.00
2023-01-03T10:28:04.831Z,0.00
2023-01-03T10:30:58.523Z,1.00
2023-01-03T10:33:47.464Z,0.00
2023-01-03T10:36:17.014Z,0.00
2023-01-03T10:38:52.936Z,0.00
2023-01-03T10:41:45.264Z,0.00
2023-01-03T10:44:25.800Z,0.00
2023-01-03T10:46:55.712Z,0.00
2023-01-03T10:49:28.388Z,0.00
2023-01-03T10:52:01.567Z,0.00
2023-01-03T10:54:42.489Z,0.00
2023-01-03T10:57:58.546Z,0.00
2023-01-03T11:00:36.551Z,0.00
2023-01-03T11:03:12.742Z,0.00
2023-01-03T11:05:42.531Z,0.00
2023-01-03T11:08:22.780Z,0.60
2023-01-03T11:10:52.340Z,0.00
2023-01-03T11:13:33.044Z,0.00
2023-01-03T11:16:03.672Z,0.00
2023-01-03T11:18:33.385Z,0.00
2023-01-03T11:21:25.262Z,0.00
2023-01-03T11:24:17.501Z,0.00
2023-01-03T11:26:56.658Z,0.00
2023-01-03T11:29:59.557Z,0.00
2023-01-03T11:32:41.520Z,0.00
2023-01-03T11:35:33.212Z,0.00
2023-01-03T11:38:30.990Z,0.20
2023-01-03T11:41:04.920Z,0.00
2023-01-03T11:43:51.282Z,0.00
2023-01-03T11:46:26.682Z,0.00
2023-01-03T11:49:20.207Z,0.00
2023-01-03T11:52:02.524Z,0.00
2023-01-03T11:54:36.112Z,0.00
2023-01-03T11:57:34.114Z,0.00
2023-01-03T12:00:20.478Z,0.00
2023-01-03T12:02:58.085Z,0.00
2023-01-03T12:05:57.153Z,0.00
2023-01-03T12:08:39.765Z,0.00
2023-01-03T12:11:27.213Z,0.60
2023-01-03T12:14:15.740Z,0.00
2023-01-03T12:16:49.770Z,0.80
2023-01-03T12:19:49.513Z,0.00
2023-01-03T12:22:31.076Z,0.00
2023-01-03T12:25:19.703Z,0.00
2023-01-03T12:28:10.456Z,0.00
2023-01-03T12:31:31.843Z,0.00
2023-01-03T12:34:35.335Z,0.00
2023-01-03T12:37:20.260Z,0.00
2023-01-03T12:39:55.575Z,0.20
2023-01-03T12:42:46.607Z,0.00
2023-01-03T12:45:29.794Z,0.00
2023-01-03T12:48:07.927Z,0.00
2023-01-03T12:50:46.145Z,0.00
2023-01-03T12:53:46.977Z,0.40
2023-01-03T12:56:42.435Z,0.00
2023-01-03T12:59:46.401Z,0.00
2023-01-03T13:03:09.252Z,0.00
2023-01-03T13:06:12.654Z,0.00
2023-01-03T13:08:49.159Z,0.00
2023-01-03T13:11:28.711Z,0.00
2023-01-03T13:14:06.048Z,0.00
2023-01-03T13:16:53.644Z,0.00
2023-01-03T13:19:21.610Z,0.00
2023-01-03T13:21:55.042Z,0.00
2023-01-03T13:24:49.645Z,0.00
2023-01-03T13:27:20.708Z,0.40
2023-01-03T13:29:50.997Z,0.00
2023-01-03T13:32:18.223Z,0.00
2023-01-03T13:35:01.648Z,0.00
2023-01-03T13:37:47.240Z,0.00
2023-01-03T13:41:15.513Z,0.00
2023-01-03T13:43:34.646Z,0.00
2023-01-03T13:46:20.474Z,0.00
2023-01-03T13:49:08.647Z,0.20
2023-01-03T13:51:47.673Z,0.00
2023-01-03T13:54:17.917Z,0.20
2023-01-03T13:56:45.189Z,0.00
2023-01-03T13:59:15.692Z,1.00
2023-01-03T14:02:01.860Z,0.00
2023-01-03T14:05:13.997Z,0.00
2023-01-03T14:08:11.147Z,1.40
2023-01-03T14:10:56.516Z,0.60
2023-01-03T14:13:23.733Z,0.00
2023-01-03T14:16:21.688Z,0.00
2023-01-03T14:19:34.327Z,0.00
2023-01-03T14:22:27.942Z,0.00
2023-01-03T14:24:58.322Z,0.20
2023-01-03T14:27:38.126Z,0.00
2023-01-03T14:30:24.424Z,1.00
2023-01-03T14:32:51.792Z,1.80
2023-01-03T14:35:40.320Z,1.00
2023-01-03T14:38:27.300Z,0.00
2023-01-03T14:40:57.478Z,0.00
2023-01-03T14:43:33.818Z,0.00
2023-01-03T14:46:07.679Z,0.00
2023-01-03T14:48:35.404Z,1.00
2023-01-03T14:51:05.666Z,0.60
2023-01-03T14:53:35.546Z,0.00
2023-01-03T14:56:03.878Z,0.20
2023-01-03T14:58:39.939Z,0.40
2023-01-03T15:01:11.034Z,0.00
2023-01-03T15:03:42.704Z,1.00
2023-01-03T15:06:36.944Z,1.00
2023-01-03T15:09:22.714Z,1.00
2023-01-03T15:11:57.464Z,0.80
2023-01-03T15:14:30.306Z,2.20
2023-01-03T15:17:07.186Z,0.60
2023-01-03T15:19:37.876Z,1.00
2023-01-03T15:22:32.387Z,1.40
2023-01-03T15:25:20.504Z,0.40
2023-01-03T15:27:51.123Z,0.60
2023-01-03T15:30:23.661Z,0.20
2023-01-03T15:32:59.463Z,0.00
2023-01-03T15:35:38.522Z,0.80
2023-01-03T15:38:31.257Z,0.00
2023-01-03T15:41:00.195Z,1.00
2023-01-03T15:43:37.300Z,0.00
2023-01-03T15:46:20.464Z,0.00
2023-01-03T15:48:55.884Z,0.00
2023-01-03T15:51:23.689Z,0.60
2023-01-03T15:53:51.017Z,0.20
2023-01-03T15:56:27.267Z,2.40
2023-01-03T15:58:56.871Z,0.00
2023-01-03T16:01:25.729Z,0.00
2023-01-03T16:03:53.720Z,0.00
2023-01-03T16:06:21.028Z,0.00
2023-01-03T16:08:48.390Z,0.00
2023-01-03T16:11:20.299Z,0.20
2023-01-03T16:14:01.950Z,0.40
2023-01-03T16:16:34.152Z,0.20
2023-01-03T16:19:04.189Z,0.00
2023-01-03T16:21:31.644Z,1.00
2023-01-03T16:23:59.446Z,0.00
2023-01-03T16:26:26.696Z,1.00
2023-01-03T16:28:54.127Z,1.20
2023-01-03T16:31:32.618Z,1.00
2023-01-03T16:34:00.608Z,0.00
2023-01-03T16:36:39.798Z,1.00
2023-01-03T16:39:25.410Z,1.00
2023-01-03T16:42:13.174Z,1.00
2023-01-03T16:44:44.263Z,1.00
2023-01-03T16:47:22.938Z,1.40
2023-01-03T16:49:57.881Z,0.00
2023-01-03T16:52:33.612Z,0.60
2023-01-03T16:55:22.418Z,1.00
2023-01-03T16:57:54.177Z,0.80
2023-01-03T17:00:25.332Z,0.00
2023-01-03T17:02:54.670Z,0.00
2023-01-03T17:05:22.801Z,0.00
2023-01-03T17:07:52.235Z,0.00
2023-01-03T17:10:30.212Z,0.20
2023-01-03T17:12:59.770Z,0.60
2023-01-03T17:15:27.772Z,0.20
2023-01-03T17:17:55.079Z,1.00
2023-01-03T17:20:23.107Z,0.80
2023-01-03T17:22:54.075Z,0.00
2023-01-03T17:25:21.795Z,0.00
2023-01-03T17:28:00.230Z,0.00
2023-01-03T17:30:28.292Z,0.20
2023-01-03T17:32:55.831Z,0.00
2023-01-03T17:35:23.178Z,0.00
2023-01-03T17:40:39.725Z,0.80
2023-01-03T17:43:07.025Z,0.00
2023-01-03T17:45:52.673Z,0.00
2023-01-03T17:48:38.500Z,1.00
2023-01-03T17:51:05.839Z,0.00
2023-01-03T17:53:33.496Z,0.00
2023-01-03T17:56:00.927Z,1.00
2023-01-03T17:58:38.561Z,1.00
2023-01-03T18:01:08.263Z,0.00
2023-01-03T18:03:38.687Z,0.00
2023-01-03T18:06:15.102Z,0.60
2023-01-03T18:08:43.491Z,0.60
2023-01-03T18:11:20.201Z,0.00
2023-01-03T18:13:49.835Z,1.00
2023-01-03T18:16:20.823Z,0.80
2023-01-03T18:18:49.050Z,0.00
2023-01-03T18:21:24.896Z,0.00
2023-01-03T18:24:29.013Z,0.00
2023-01-03T18:26:57.665Z,0.00
2023-01-03T18:29:24.885Z,0.00
2023-01-03T18:31:56.036Z,0.00
2023-01-03T18:34:23.366Z,0.00
2023-01-03T18:36:52.652Z,0.00
2023-01-03T18:39:27.062Z,0.00
2023-01-03T18:42:16.172Z,0.00
2023-01-03T18:44:43.532Z,0.00
2023-01-03T18:47:13.356Z,0.00
2023-01-03T18:49:40.771Z,0.00
2023-01-03T18:52:21.445Z,0.00
2023-01-03T18:54:48.820Z,0.00
2023-01-03T18:57:16.026Z,0.00
2023-01-03T18:59:43.287Z,0.00
2023-01-03T19:02:16.082Z,0.00
2023-01-03T19:04:49.220Z,1.00
2023-01-03T19:07:35.787Z,0.00
2023-01-03T19:10:06.956Z,0.00
2023-01-03T19:12:39.832Z,0.00
2023-01-03T19:15:16.879Z,0.40
2023-01-03T19:17:44.420Z,1.00
2023-01-03T19:20:12.447Z,0.00
2023-01-03T19:22:41.103Z,0.20
2023-01-03T19:25:20.746Z,1.00
2023-01-03T19:27:50.218Z,0.60
2023-01-03T19:30:19.390Z,0.00
2023-01-03T19:32:54.389Z,0.40
2023-01-03T19:35:26.181Z,0.00
2023-01-03T19:37:53.595Z,0.20
2023-01-03T19:40:25.064Z,0.00
2023-01-03T19:42:54.920Z,0.00
2023-01-03T19:45:30.559Z,0.00
2023-01-03T19:48:00.347Z,0.00
2023-01-03T19:50:34.459Z,0.00
2023-01-03T19:53:02.400Z,0.00
2023-01-03T19:55:35.468Z,0.00
2023-01-03T19:58:10.507Z,0.00
2023-01-03T20:00:37.752Z,0.00
2023-01-03T20:03:08.202Z,0.00
2023-01-03T20:05:35.991Z,1.00
2023-01-03T20:08:11.777Z,0.00
2023-01-03T20:10:46.499Z,0.00
2023-01-03T20:13:32.604Z,0.00
2023-01-03T20:16:02.260Z,0.00
2023-01-03T20:18:37.137Z,0.60
2023-01-03T20:21:09.835Z,0.00
2023-01-03T20:23:40.677Z,0.00
2023-01-03T20:26:32.808Z,0.20
2023-01-03T20:29:00.760Z,0.00
2023-01-03T20:31:28.703Z,0.00
2023-01-03T20:33:56.075Z,0.00
2023-01-03T20:36:26.976Z,0.00
2023-01-03T20:38:56.319Z,1.00
2023-01-03T20:41:36.845Z,0.00
2023-01-03T20:44:09.044Z,0.00
2023-01-03T20:46:39.269Z,0.60
2023-01-03T20:49:22.512Z,0.00
2023-01-03T20:51:49.932Z,0.00
2023-01-03T20:54:17.598Z,0.00
2023-01-03T20:56:45.641Z,0.00
2023-01-03T20:59:17.567Z,0.20
2023-01-03T21:01:46.169Z,0.00
2023-01-03T21:04:13.638Z,0.40
2023-01-03T21:06:43.928Z,0.00
2023-01-03T21:09:12.201Z,0.00
2023-01-03T21:11:39.624Z,0.40
2023-01-03T21:14:06.849Z,0.00
2023-01-03T21:16:46.977Z,0.00
2023-01-03T21:19:14.291Z,0.00
2023-01-03T21:21:44.279Z,0.00
2023-01-03T21:24:13.203Z,0.60
2023-01-03T21:26:40.488Z,0.00
2023-01-03T21:29:08.149Z,0.20
2023-01-03T21:31:37.039Z,0.00
2023-01-03T21:34:13.267Z,0.00
2023-01-03T21:36:40.516Z,0.00
2023-01-03T21:39:07.886Z,0.00
2023-01-03T21:41:55.964Z,0.00
2023-01-03T21:44:23.479Z,0.80
2023-01-03T21:46:50.641Z,0.00
2023-01-03T21:49:17.993Z,0.00
2023-01-03T21:51:45.202Z,0.00
2023-01-03T21:54:13.053Z,0.00
2023-01-03T21:56:46.344Z,0.00
2023-01-03T21:59:18.016Z,0.00
2023-01-03T22:02:06.871Z,0.00
2023-01-03T22:04:34.815Z,0.00
2023-01-03T22:07:02.452Z,0.00
2023-01-03T22:09:50.791Z,0.00
2023-01-03T22:12:19.242Z,0.00
2023-01-03T22:14:47.800Z,0.00
2023-01-03T22:17:15.816Z,0.00
2023-01-03T22:19:43.092Z,0.00
2023-01-03T22:22:10.710Z,0.00
2023-01-03T22:24:37.968Z,0.00
2023-01-03T22:27:05.325Z,0.00
2023-01-03T22:29:32.531Z,0.00
2023-01-03T22:31:59.921Z,0.00
2023-01-03T22:34:27.257Z,0.00
2023-01-03T22:36:54.577Z,0.40
2023-01-03T22:39:21.705Z,0.00
2023-01-03T22:41:49.146Z,0.00
2023-01-03T22:44:16.356Z,0.00
2023-01-03T22:46:43.539Z,0.00
2023-01-03T22:49:10.892Z,0.00
2023-01-03T22:51:38.115Z,0.00
2023-01-03T22:54:05.503Z,0.00
2023-01-03T22:56:32.769Z,0.00
2023-01-03T22:59:01.492Z,0.00
2023-01-03T23:01:29.229Z,0.00
2023-01-03T23:04:03.846Z,0.00
2023-01-03T23:06:33.528Z,0.00
2023-01-03T23:09:02.271Z,0.00
2023-01-03T23:11:50.938Z,0.80
2023-01-03T23:14:21.002Z,0.00
2023-01-03T23:16:51.146Z,0.00
2023-01-03T23:19:20.851Z,0.00
2023-01-03T23:21:48.224Z,0.00
2023-01-03T23:24:18.715Z,0.00
2023-01-03T23:26:46.422Z,0.00
2023-01-03T23:29:16.677Z,0.00
2023-01-03T23:31:44.775Z,0.00
2023-01-03T23:34:12.849Z,0.00
2023-01-03T23:36:43.521Z,0.00
2023-01-03T23:39:17.210Z,0.00
2023-01-03T23:41:45.092Z,0.00
2023-01-03T23:44:12.796Z,0.00
2023-01-03T23:46:40.363Z,0.00
2023-01-03T23:49:07.949Z,0.00
2023-01-03T23:51:36.684Z,0.00
2023-01-03T23:54:04.239Z,0.00
2023-01-03T23:56:31.694Z,0.00
2023-01-03T23:58:59.138Z,0.00
